Time;durP1;ratioP1;P1;durP2;ratioP2;P2;SDS_P1;SDS_P2;PMS_P1;PMS_P2;Temp;Humidity;BMP_temperature;BMP_pressure;BME280_temperature;BME280_humidity;BME280_pressure;Samples;Min_cycle;Max_cycle;Signal;HPM_P1;HPM_P2
2022/04/14 00:01:20;;;;;;;13.23;8.47;;;12.40;25.10;;;;;;5074553;28;20166;-68
2022/04/14 00:03:46;;;;;;;12.70;8.70;;;12.40;34.50;;;;;;5074348;28;20232;-69
2022/04/14 00:06:12;;;;;;;12.60;8.50;;;12.40;34.40;;;;;;5074194;28;20213;-68
2022/04/14 00:08:37;;;;;;;23.73;8.77;;;12.40;41.60;;;;;;5073420;28;20185;-69
2022/04/14 00:11:03;;;;;;;10.63;8.10;;;12.40;45.20;;;;;;5074268;28;20655;-69
2022/04/14 00:13:29;;;;;;;15.07;8.13;;;12.40;46.60;;;;;;5074003;28;20253;-68
2022/04/14 00:15:54;;;;;;;11.33;8.40;;;12.30;51.10;;;;;;5074065;28;20605;-64
2022/04/14 00:18:20;;;;;;;14.63;7.97;;;12.30;53.80;;;;;;5073961;28;20242;-66
2022/04/14 00:20:46;;;;;;;11.97;7.70;;;12.20;60.40;;;;;;5073404;28;20201;-65
2022/04/14 00:23:11;;;;;;;10.33;7.40;;;12.30;68.30;;;;;;5073889;28;20762;-65
2022/04/14 00:25:37;;;;;;;16.80;7.83;;;12.30;71.90;;;;;;5073903;28;20167;-69
2022/04/14 00:28:03;;;;;;;13.57;8.07;;;12.30;72.40;;;;;;5055816;28;20657;-68
2022/04/14 00:30:28;;;;;;;10.80;7.20;;;12.20;71.60;;;;;;5073083;28;20179;-65
2022/04/14 00:32:54;;;;;;;8.97;6.90;;;12.20;70.70;;;;;;5073576;28;20449;-65
2022/04/14 00:35:20;;;;;;;16.17;8.00;;;12.10;75.30;;;;;;5073517;28;20197;-65
2022/04/14 00:37:45;;;;;;;13.63;7.20;;;12.10;76.90;;;;;;5073783;28;20519;-68
2022/04/14 00:40:12;;;;;;;13.77;8.77;;;12.00;81.00;;;;;;5073049;28;20162;-65
2022/04/14 00:42:38;;;;;;;10.70;7.43;;;12.00;81.90;;;;;;5073497;28;20774;-70
2022/04/14 00:45:04;;;;;;;8.53;7.57;;;12.10;83.40;;;;;;5073511;28;20462;-65
2022/04/14 00:47:29;;;;;;;15.83;7.73;;;12.10;89.60;;;;;;5073749;28;20528;-65
2022/04/14 00:49:56;;;;;;;12.97;7.30;;;12.10;90.60;;;;;;5072988;28;20408;-64
2022/04/14 00:52:22;;;;;;;15.10;9.13;;;12.10;92.40;;;;;;5073489;28;20186;-68
2022/04/14 00:54:48;;;;;;;8.30;6.43;;;12.10;94.10;;;;;;5073459;28;20483;-65
2022/04/14 00:57:14;;;;;;;13.53;9.07;;;12.10;94.00;;;;;;5073392;28;20490;-65
2022/04/14 00:59:41;;;;;;;11.70;7.67;;;12.10;94.20;;;;;;5073139;28;20183;-65
2022/04/14 01:02:08;;;;;;;14.27;8.60;;;12.10;94.50;;;;;;5073558;28;20387;-69
2022/04/14 01:04:34;;;;;;;12.00;7.50;;;12.00;91.20;;;;;;5073524;28;20429;-69
2022/04/14 01:07:01;;;;;;;15.17;8.20;;;12.00;92.00;;;;;;5073315;28;20378;-65
2022/04/14 01:09:28;;;;;;;11.70;8.00;;;12.00;94.00;;;;;;5072595;28;20911;-65
2022/04/14 01:11:55;;;;;;;8.50;6.93;;;11.90;94.60;;;;;;5073303;28;20901;-65
2022/04/14 01:14:31;;;;;;;14.53;7.80;;;11.90;97.30;;;;;;5073250;28;20847;-65
2022/04/14 01:16:59;;;;;;;12.73;8.40;;;11.90;99.40;;;;;;5073169;28;20378;-70
2022/04/14 01:19:25;;;;;;;12.83;8.50;;;11.90;99.90;;;;;;5072515;28;20393;-69
2022/04/14 01:22:08;;;;;;;13.43;8.27;;;11.90;99.90;;;;;;5073103;28;20398;-68
2022/04/14 01:24:35;;;;;;;9.27;7.17;;;11.90;99.90;;;;;;5073128;28;20375;-65
2022/04/14 01:27:01;;;;;;;14.30;8.10;;;11.90;99.90;;;;;;5073008;28;20375;-65
2022/04/14 01:29:28;;;;;;;9.23;6.40;;;11.80;99.90;;;;;;5058942;28;20395;-69
2022/04/14 01:31:55;;;;;;;14.80;8.60;;;11.80;99.90;;;;;;5077231;28;20423;-69
2022/04/14 01:34:21;;;;;;;13.87;9.20;;;11.80;99.90;;;;;;5077054;28;20786;-69
2022/04/14 01:36:47;;;;;;;12.83;8.83;;;11.80;99.90;;;;;;5077027;28;20488;-69
2022/04/14 01:39:14;;;;;;;8.87;7.73;;;11.70;99.90;;;;;;5076249;28;20166;-65
2022/04/14 01:41:41;;;;;;;14.17;8.53;;;11.70;99.90;;;;;;5076840;28;20182;-65
2022/04/14 01:44:07;;;;;;;14.07;9.83;;;11.70;99.90;;;;;;5076948;28;20405;-69
2022/04/14 01:46:33;;;;;;;11.77;8.20;;;11.70;99.90;;;;;;5077030;28;20392;-69
2022/04/14 01:48:59;;;;;;;12.30;8.60;;;11.70;99.90;;;;;;5076191;28;20386;-67
2022/04/14 01:51:28;;;;;;;12.60;8.40;;;11.70;99.90;;;;;;5076741;28;20578;-65
2022/04/14 01:53:54;;;;;;;10.53;8.23;;;11.70;99.90;;;;;;5076936;28;20823;-68
2022/04/14 01:56:21;;;;;;;15.70;9.33;;;11.60;99.90;;;;;;5076840;28;20518;-69
2022/04/14 01:58:47;;;;;;;14.33;9.40;;;11.60;99.90;;;;;;5076252;28;20799;-64
2022/04/14 02:01:13;;;;;;;14.17;8.40;;;11.60;99.90;;;;;;5076498;28;20399;-70
2022/04/14 02:03:39;;;;;;;17.23;9.57;;;11.60;99.90;;;;;;5058664;28;20432;-65
2022/04/14 02:06:05;;;;;;;15.93;9.13;;;11.60;99.90;;;;;;5076574;28;20173;-64
2022/04/14 02:08:30;;;;;;;19.43;9.40;;;11.50;99.90;;;;;;5075756;28;20745;-65
2022/04/14 02:10:56;;;;;;;22.53;9.20;;;11.50;99.90;;;;;;5076441;28;20193;-68
2022/04/14 02:13:22;;;;;;;14.20;11.00;;;11.50;99.90;;;;;;5076285;28;20194;-65
2022/04/14 02:15:48;;;;;;;16.20;11.47;;;11.50;99.90;;;;;;5076185;28;21027;-68
2022/04/14 02:18:13;;;;;;;21.50;10.50;;;11.50;99.90;;;;;;5076412;28;20197;-65
2022/04/14 02:20:39;;;;;;;16.47;9.87;;;11.50;99.90;;;;;;5075614;28;20666;-68
2022/04/14 02:23:05;;;;;;;21.20;10.10;;;11.40;99.90;;;;;;5076323;28;20531;-65
2022/04/14 02:25:30;;;;;;;19.73;10.50;;;11.40;99.90;;;;;;5076097;28;20170;-69
2022/04/14 02:27:56;;;;;;;14.80;9.87;;;11.50;99.90;;;;;;5076132;28;20169;-68
2022/04/14 02:30:22;;;;;;;16.40;10.37;;;11.50;99.90;;;;;;5075341;28;20193;-64
2022/04/14 02:32:48;;;;;;;24.47;10.97;;;11.40;99.90;;;;;;5075905;28;20186;-65
2022/04/14 02:35:14;;;;;;;18.07;11.80;;;11.30;99.90;;;;;;5075886;28;20415;-66
2022/04/14 02:37:40;;;;;;;23.80;12.47;;;11.30;99.90;;;;;;5075747;28;20620;-65
2022/04/14 02:40:07;;;;;;;25.83;11.00;;;11.20;99.90;;;;;;5074027;28;20420;-69
2022/04/14 02:42:32;;;;;;;21.20;10.43;;;11.20;99.90;;;;;;5075729;28;20182;-64
2022/04/14 02:44:58;;;;;;;20.13;11.60;;;11.30;99.90;;;;;;5075980;28;20390;-65
2022/04/14 02:47:23;;;;;;;23.50;13.00;;;11.30;99.90;;;;;;5075804;28;20173;-68
2022/04/14 02:49:49;;;;;;;31.23;13.43;;;11.20;99.90;;;;;;5075070;28;20185;-67
2022/04/14 02:52:15;;;;;;;20.90;11.70;;;11.20;99.90;;;;;;5075810;28;20650;-68
2022/04/14 02:54:41;;;;;;;24.63;13.50;;;11.20;99.90;;;;;;5075560;28;20555;-69
2022/04/14 02:57:07;;;;;;;26.93;12.70;;;11.10;99.90;;;;;;5075831;28;20169;-64
2022/04/14 02:59:34;;;;;;;27.10;13.60;;;11.10;99.90;;;;;;5074706;28;20257;-66
2022/04/14 03:02:01;;;;;;;27.20;14.20;;;11.10;99.90;;;;;;5075458;28;20427;-68
2022/04/14 03:04:29;;;;;;;21.70;13.17;;;11.10;99.90;;;;;;5075482;28;20375;-70
2022/04/14 03:06:55;;;;;;;29.67;15.30;;;11.00;99.90;;;;;;5075508;28;20367;-68
2022/04/14 03:09:21;;;;;;;24.30;15.20;;;11.00;99.90;;;;;;5074720;28;20398;-69
2022/04/14 03:11:46;;;;;;;29.73;14.17;;;11.10;99.90;;;;;;5075157;28;20424;-67
2022/04/14 03:14:12;;;;;;;26.70;14.90;;;11.00;99.90;;;;;;5075255;28;20368;-68
2022/04/14 03:16:38;;;;;;;37.33;16.70;;;11.00;99.90;;;;;;5075320;28;20175;-65
2022/04/14 03:19:04;;;;;;;27.40;15.10;;;11.10;99.90;;;;;;5074540;28;20163;-67
2022/04/14 03:21:29;;;;;;;31.20;15.93;;;11.10;99.90;;;;;;5075088;28;20197;-65
2022/04/14 03:23:55;;;;;;;26.57;15.77;;;11.10;99.90;;;;;;5075022;28;20542;-67
2022/04/14 03:26:21;;;;;;;40.67;18.03;;;11.00;99.90;;;;;;5075212;28;20562;-69
2022/04/14 03:28:46;;;;;;;36.87;18.87;;;11.00;99.90;;;;;;5074484;28;20684;-69
2022/04/14 03:31:12;;;;;;;31.00;16.93;;;11.00;99.90;;;;;;5074924;28;20646;-68
2022/04/14 03:33:37;;;;;;;32.67;17.83;;;11.00;99.90;;;;;;5074856;28;20196;-69
2022/04/14 03:36:03;;;;;;;33.93;20.53;;;11.00;99.90;;;;;;5074686;28;20190;-65
2022/04/14 03:38:29;;;;;;;32.20;17.47;;;11.00;99.90;;;;;;5074371;28;20170;-70
2022/04/14 03:40:54;;;;;;;33.83;19.17;;;11.00;99.90;;;;;;5074691;28;20170;-68
2022/04/14 03:43:20;;;;;;;45.60;18.20;;;11.00;99.90;;;;;;5074634;28;20194;-69
2022/04/14 03:45:46;;;;;;;35.33;18.77;;;11.00;99.90;;;;;;5074679;28;20174;-70
2022/04/14 03:48:11;;;;;;;35.13;20.00;;;11.00;99.90;;;;;;5074570;28;20185;-65
2022/04/14 03:50:37;;;;;;;38.70;19.70;;;11.00;99.90;;;;;;5073686;28;20182;-69
2022/04/14 03:53:03;;;;;;;35.33;20.50;;;11.00;99.90;;;;;;5074338;28;20222;-65
2022/04/14 03:55:28;;;;;;;34.77;18.10;;;11.00;99.90;;;;;;5074532;28;20209;-68
2022/04/14 03:57:54;;;;;;;36.80;19.97;;;11.00;99.90;;;;;;5074551;28;20229;-65
2022/04/14 04:00:19;;;;;;;50.77;21.97;;;11.00;99.90;;;;;;5073584;28;20170;-68
2022/04/14 04:02:45;;;;;;;37.27;21.40;;;11.00;99.90;;;;;;5074289;28;20197;-68
2022/04/14 04:05:11;;;;;;;44.70;22.20;;;11.00;99.90;;;;;;5074426;28;20312;-68
2022/04/14 04:07:37;;;;;;;42.27;21.50;;;10.90;99.90;;;;;;5074410;28;20530;-65
2022/04/14 04:10:04;;;;;;;46.00;21.60;;;11.00;99.90;;;;;;5073373;28;20494;-65
2022/04/14 04:12:30;;;;;;;44.50;22.80;;;11.00;99.90;;;;;;5073925;28;20563;-68
2022/04/14 04:14:55;;;;;;;43.90;22.43;;;11.00;99.90;;;;;;5074066;28;20455;-68
2022/04/14 04:17:21;;;;;;;43.97;24.00;;;11.00;99.90;;;;;;5073889;28;20171;-65
2022/04/14 04:19:46;;;;;;;42.63;22.40;;;11.00;99.90;;;;;;5073444;28;20162;-68
2022/04/14 04:22:12;;;;;;;50.87;23.43;;;11.00;99.90;;;;;;5073858;28;20190;-65
2022/04/14 04:24:38;;;;;;;43.90;21.97;;;11.00;99.90;;;;;;5073827;28;20182;-68
2022/04/14 04:27:05;;;;;;;47.37;22.40;;;11.00;99.90;;;;;;5073892;28;20174;-65
2022/04/14 04:29:31;;;;;;;49.73;24.40;;;11.00;99.90;;;;;;5073199;28;20194;-65
2022/04/14 04:31:56;;;;;;;39.70;20.67;;;11.00;99.90;;;;;;5073617;28;20434;-65
2022/04/14 04:34:23;;;;;;;38.70;20.23;;;11.00;99.90;;;;;;5073597;28;20401;-65
2022/04/14 04:36:49;;;;;;;47.83;22.60;;;11.10;1.00;;;;;;5073598;28;20170;-69
2022/04/14 04:39:15;;;;;;;46.90;21.10;;;11.00;1.00;;;;;;5073103;28;20404;-69
2022/04/14 04:41:40;;;;;;;46.63;22.20;;;11.00;1.00;;;;;;5073470;28;20402;-68
2022/04/14 04:44:06;;;;;;;39.40;21.80;;;11.10;1.00;;;;;;5073687;28;20372;-65
2022/04/14 04:46:32;;;;;;;39.33;20.23;;;11.10;1.00;;;;;;5073243;28;20174;-65
2022/04/14 04:48:58;;;;;;;46.90;21.80;;;11.10;1.00;;;;;;5072754;28;20542;-65
2022/04/14 04:51:24;;;;;;;38.50;20.53;;;11.20;1.00;;;;;;5073593;28;20379;-69
2022/04/14 04:53:52;;;;;;;38.80;20.93;;;11.20;1.00;;;;;;5073582;28;20166;-68
2022/04/14 04:56:20;;;;;;;39.30;19.07;;;11.20;1.00;;;;;;5073569;28;20454;-65
2022/04/14 04:58:46;;;;;;;35.77;17.80;;;11.20;1.00;;;;;;5072746;28;20727;-68
2022/04/14 05:01:12;;;;;;;34.07;18.43;;;11.10;1.00;;;;;;5073399;28;20466;-68
2022/04/14 05:03:39;;;;;;;35.13;18.70;;;11.10;1.00;;;;;;5054811;28;20735;-64
2022/04/14 05:06:05;;;;;;;36.40;20.70;;;11.10;1.00;;;;;;5073414;28;20371;-68
2022/04/14 05:08:31;;;;;;;32.97;19.20;;;11.00;1.00;;;;;;5072699;28;20387;-66
2022/04/14 05:10:57;;;;;;;39.83;20.30;;;11.10;1.00;;;;;;5073214;28;20510;-68
2022/04/14 05:13:22;;;;;;;32.80;18.97;;;11.20;1.00;;;;;;5073156;28;20512;-69
2022/04/14 05:15:48;;;;;;;31.30;18.60;;;11.20;1.00;;;;;;5073246;28;20198;-65
2022/04/14 05:18:14;;;;;;;37.57;18.33;;;11.20;1.00;;;;;;5073149;28;20166;-69
2022/04/14 05:20:42;;;;;;;39.20;19.73;;;11.20;1.00;;;;;;5072584;28;20627;-69
2022/04/14 05:23:09;;;;;;;31.37;19.10;;;11.20;1.00;;;;;;5073086;28;20603;-68
2022/04/14 05:25:35;;;;;;;50.10;20.30;;;11.20;1.00;;;;;;5073303;28;20452;-65
2022/04/14 05:28:01;;;;;;;37.93;18.17;;;11.20;1.00;;;;;;5073151;28;20379;-65
2022/04/14 05:30:26;;;;;;;44.73;22.43;;;11.20;1.00;;;;;;5054662;28;20419;-65
2022/04/14 05:32:52;;;;;;;32.50;18.80;;;11.20;1.00;;;;;;5072891;28;20194;-65
2022/04/14 05:35:17;;;;;;;35.37;20.13;;;11.30;1.00;;;;;;5073067;28;20205;-68
2022/04/14 05:37:43;;;;;;;39.73;18.67;;;11.30;1.00;;;;;;5073048;28;20590;-66
2022/04/14 05:40:09;;;;;;;39.77;21.50;;;11.40;1.00;;;;;;5072283;28;20174;-69
2022/04/14 05:42:35;;;;;;;41.07;20.90;;;11.30;1.00;;;;;;5072783;28;20265;-68
2022/04/14 05:45:01;;;;;;;37.47;21.20;;;11.40;1.00;;;;;;5072792;28;20659;-67
2022/04/14 05:47:30;;;;;;;34.30;20.20;;;11.40;1.00;;;;;;5072919;28;20375;-66
2022/04/14 05:49:58;;;;;;;40.83;18.30;;;11.40;1.00;;;;;;5054168;28;20387;-66
2022/04/14 05:52:24;;;;;;;41.57;20.63;;;11.50;1.00;;;;;;5072766;28;20411;-65
2022/04/14 05:54:50;;;;;;;42.23;22.60;;;11.60;1.00;;;;;;5054853;28;20459;-66
2022/04/14 05:57:16;;;;;;;51.70;20.47;;;11.60;1.00;;;;;;5072950;28;20166;-65
2022/04/14 05:59:42;;;;;;;37.80;20.50;;;11.40;1.00;;;;;;5072348;28;20167;-68
2022/04/14 06:02:09;;;;;;;28.33;19.07;;;11.40;1.00;;;;;;5072858;28;20396;-65
2022/04/14 06:04:35;;;;;;;41.17;21.53;;;11.60;1.00;;;;;;5072806;28;20880;-69
2022/04/14 06:07:00;;;;;;;40.50;20.50;;;11.60;1.00;;;;;;5072766;28;20415;-69
2022/04/14 06:09:26;;;;;;;41.00;20.00;;;11.50;1.00;;;;;;5072041;28;20498;-65
2022/04/14 06:11:52;;;;;;;43.40;20.03;;;11.40;1.00;;;;;;5072524;28;20194;-65
2022/04/14 06:14:17;;;;;;;41.00;24.80;;;11.40;1.00;;;;;;5074867;28;20173;-65
2022/04/14 06:16:43;;;;;;;40.40;21.93;;;11.40;1.00;;;;;;5076316;28;20204;-64
2022/04/14 06:19:09;;;;;;;44.77;23.00;;;11.50;1.00;;;;;;5075370;28;20236;-65
2022/04/14 06:21:34;;;;;;;40.07;22.17;;;11.40;1.00;;;;;;5076092;28;20658;-68
2022/04/14 06:24:00;;;;;;;43.87;23.30;;;11.40;1.00;;;;;;5076182;28;20170;-69
2022/04/14 06:26:26;;;;;;;34.90;20.00;;;11.50;1.00;;;;;;5076141;28;20174;-65
2022/04/14 06:28:51;;;;;;;47.33;23.63;;;11.50;1.00;;;;;;5075438;28;20228;-68
2022/04/14 06:31:17;;;;;;;40.70;22.93;;;11.60;1.00;;;;;;5075634;28;20320;-66
2022/04/14 06:33:44;;;;;;;43.07;21.37;;;11.50;1.00;;;;;;5075859;28;20171;-65
2022/04/14 06:36:10;;;;;;;46.27;24.90;;;11.60;1.00;;;;;;5075883;28;20517;-69
2022/04/14 06:38:36;;;;;;;38.80;24.17;;;11.60;1.00;;;;;;5075311;28;20884;-69
2022/04/14 06:41:02;;;;;;;39.17;21.80;;;11.70;1.00;;;;;;5075856;28;20371;-68
2022/04/14 06:43:28;;;;;;;35.87;21.47;;;11.70;1.00;;;;;;5075575;28;20966;-69
2022/04/14 06:45:54;;;;;;;39.37;21.53;;;11.80;1.00;;;;;;5076061;28;20158;-65
2022/04/14 06:48:20;;;;;;;45.10;22.23;;;11.80;1.00;;;;;;5075672;28;20883;-68
2022/04/14 06:50:46;;;;;;;33.00;18.90;;;11.80;1.00;;;;;;5057271;28;20170;-69
2022/04/14 06:53:12;;;;;;;33.30;21.17;;;11.70;1.00;;;;;;5075849;28;20187;-69
2022/04/14 06:55:37;;;;;;;45.97;24.07;;;11.70;1.00;;;;;;5075693;28;20277;-67
2022/04/14 06:58:03;;;;;;;43.83;23.30;;;11.70;1.00;;;;;;5075873;28;20375;-65
2022/04/14 07:00:29;;;;;;;36.57;20.40;;;11.70;1.00;;;;;;5074954;28;20169;-69
2022/04/14 07:02:56;;;;;;;37.57;20.20;;;11.80;1.00;;;;;;5075666;28;20392;-68
2022/04/14 07:05:23;;;;;;;40.80;21.47;;;11.80;1.00;;;;;;5075506;28;20401;-69
2022/04/14 07:07:49;;;;;;;38.10;21.93;;;11.90;1.00;;;;;;5075412;28;20404;-65
2022/04/14 07:10:15;;;;;;;37.30;20.10;;;11.90;1.00;;;;;;5074427;28;20483;-66
2022/04/14 07:12:42;;;;;;;34.17;21.43;;;11.90;1.00;;;;;;5074981;28;20395;-64
2022/04/14 07:15:09;;;;;;;29.70;18.60;;;11.90;1.00;;;;;;5075200;28;20198;-68
2022/04/14 07:17:36;;;;;;;39.23;20.40;;;11.90;1.00;;;;;;5075280;28;20364;-68
2022/04/14 07:20:03;;;;;;;35.00;19.87;;;11.80;1.00;;;;;;5074612;28;20367;-65
2022/04/14 07:22:50;;;;;;;44.00;21.70;;;11.70;1.00;;;;;;5075157;28;20405;-68
2022/04/14 07:25:16;;;;;;;45.20;21.20;;;11.70;1.00;;;;;;5074443;28;20466;-65
2022/04/14 07:27:43;;;;;;;43.33;23.27;;;11.70;1.00;;;;;;5074960;28;20867;-65
2022/04/14 07:30:09;;;;;;;36.97;20.67;;;11.80;1.00;;;;;;5074296;28;20435;-65
2022/04/14 07:32:36;;;;;;;42.50;22.10;;;11.70;1.00;;;;;;5074991;28;20395;-68
2022/04/14 07:35:05;;;;;;;47.93;25.17;;;11.80;1.00;;;;;;5074747;28;20471;-69
2022/04/14 07:37:31;;;;;;;48.13;25.70;;;11.80;1.00;;;;;;5074778;28;20371;-65
2022/04/14 07:39:57;;;;;;;50.97;26.53;;;11.80;1.00;;;;;;5074044;28;20420;-65
2022/04/14 07:42:31;;;;;;;43.43;25.40;;;11.90;1.00;;;;;;5074613;28;20435;-65
2022/04/14 07:44:57;;;;;;;51.17;26.70;;;11.90;1.00;;;;;;5074682;28;20170;-68
2022/04/14 07:47:22;;;;;;;48.33;25.37;;;11.90;1.00;;;;;;5074715;28;20394;-65
2022/04/14 07:49:48;;;;;;;42.70;26.43;;;11.90;99.90;;;;;;5073778;28;20669;-69
2022/04/14 07:52:13;;;;;;;45.27;25.13;;;12.00;99.90;;;;;;5074380;28;20194;-68
2022/04/14 07:54:39;;;;;;;46.40;23.40;;;12.10;99.90;;;;;;5074650;28;20287;-69
2022/04/14 07:57:05;;;;;;;49.10;24.67;;;12.30;99.90;;;;;;5074762;28;20171;-69
2022/04/14 07:59:30;;;;;;;42.73;23.50;;;12.10;99.90;;;;;;5073840;28;20528;-64
2022/04/14 08:02:00;;;;;;;46.90;24.30;;;12.10;99.90;;;;;;5074275;28;20268;-65
2022/04/14 08:04:30;;;;;;;46.50;22.57;;;12.10;99.90;;;;;;5074467;28;20247;-65
2022/04/14 08:06:56;;;;;;;39.47;22.07;;;12.20;99.90;;;;;;5074327;28;20536;-68
2022/04/14 08:09:21;;;;;;;45.10;23.50;;;12.20;99.90;;;;;;5073617;28;20846;-64
2022/04/14 08:11:47;;;;;;;55.40;24.90;;;12.20;99.90;;;;;;5074166;28;20206;-68
2022/04/14 08:14:13;;;;;;;37.47;21.67;;;12.30;99.90;;;;;;5074143;28;20221;-65
2022/04/14 08:16:39;;;;;;;47.77;23.90;;;12.30;99.90;;;;;;5074060;28;20285;-64
2022/04/14 08:19:04;;;;;;;46.43;25.13;;;12.30;99.90;;;;;;5073436;28;20188;-68
2022/04/14 08:21:30;;;;;;;41.30;22.90;;;12.30;99.90;;;;;;5073924;28;20187;-68
2022/04/14 08:23:57;;;;;;;41.00;21.10;;;12.30;99.90;;;;;;5056107;28;20184;-66
2022/04/14 08:26:23;;;;;;;45.00;22.50;;;12.30;99.90;;;;;;5073777;28;20170;-68
2022/04/14 08:28:49;;;;;;;38.20;20.97;;;12.20;99.90;;;;;;5073420;28;20387;-64
2022/04/14 08:31:16;;;;;;;43.50;23.60;;;12.10;99.90;;;;;;5055921;28;20176;-64
2022/04/14 08:33:43;;;;;;;37.67;22.60;;;12.20;99.90;;;;;;5073790;28;20200;-65
2022/04/14 08:36:13;;;;;;;40.63;20.50;;;12.30;99.90;;;;;;5073422;28;20448;-67
2022/04/14 08:38:45;;;;;;;38.07;22.53;;;12.30;99.90;;;;;;5072271;28;20371;-69
2022/04/14 08:41:13;;;;;;;36.70;22.50;;;12.30;99.90;;;;;;5055627;28;20458;-65
2022/04/14 08:43:55;;;;;;;37.97;21.50;;;12.30;99.90;;;;;;5073681;28;20379;-64
2022/04/14 08:46:22;;;;;;;40.10;22.30;;;12.30;99.90;;;;;;5073427;28;20382;-68
2022/04/14 08:48:50;;;;;;;30.93;19.93;;;12.40;99.90;;;;;;5054845;28;20751;-69
2022/04/14 08:51:18;;;;;;;42.40;20.60;;;12.50;99.90;;;;;;5073338;28;20765;-64
2022/04/14 08:53:44;;;;;;;36.27;20.00;;;12.50;99.90;;;;;;5073539;28;20379;-64
2022/04/14 08:56:11;;;;;;;37.77;20.23;;;12.50;99.90;;;;;;5073303;28;20966;-69
2022/04/14 08:58:37;;;;;;;27.80;17.90;;;12.70;99.90;;;;;;5072719;28;20396;-65
2022/04/14 09:01:03;;;;;;;29.77;18.47;;;13.00;99.90;;;;;;5073602;28;20392;-68
2022/04/14 09:03:31;;;;;;;33.73;20.40;;;13.20;99.90;;;;;;5073406;28;20412;-64
2022/04/14 09:05:57;;;;;;;35.50;21.13;;;13.40;99.90;;;;;;5073432;28;20397;-64
2022/04/14 09:08:23;;;;;;;33.00;18.50;;;13.70;99.90;;;;;;5073259;28;20405;-68
2022/04/14 09:10:49;;;;;;;25.23;15.20;;;14.00;99.90;;;;;;5072846;28;20193;-65
2022/04/14 09:13:15;;;;;;;29.10;17.13;;;14.30;99.90;;;;;;5073220;28;20189;-65
2022/04/14 09:15:41;;;;;;;26.60;15.10;;;14.60;99.90;;;;;;5055195;28;20543;-64
2022/04/14 09:18:07;;;;;;;28.20;16.10;;;14.70;99.90;;;;;;5073262;28;20476;-69
2022/04/14 09:20:36;;;;;;;23.63;15.90;;;14.90;93.90;;;;;;5072537;28;20163;-69
2022/04/14 09:23:22;;;;;;;30.10;16.87;;;15.10;61.90;;;;;;5073135;28;20412;-68
2022/04/14 09:25:53;;;;;;;36.53;17.53;;;15.20;43.10;;;;;;5073223;28;20475;-68
2022/04/14 09:28:20;;;;;;;24.60;13.60;;;15.50;36.90;;;;;;5073061;28;20472;-68
2022/04/14 09:31:06;;;;;;;23.37;13.80;;;15.80;1.00;;;;;;5072573;28;20401;-65
2022/04/14 09:33:34;;;;;;;19.47;11.73;;;15.90;1.00;;;;;;5073071;28;20413;-65
2022/04/14 09:36:07;;;;;;;22.33;13.77;;;16.30;1.00;;;;;;5072947;28;21029;-67
2022/04/14 09:39:08;;;;;;;16.40;10.93;;;16.70;1.00;;;;;;5072244;28;20454;-69
2022/04/14 09:41:41;;;;;;;16.63;11.13;;;17.00;1.00;;;;;;4991617;28;20439;-67
2022/04/14 09:44:09;;;;;;;16.40;10.83;;;17.20;1.00;;;;;;5063508;28;20481;-68
2022/04/14 09:46:37;;;;;;;15.50;10.50;;;17.60;1.00;;;;;;5072762;28;20403;-69
2022/04/14 09:49:08;;;;;;;17.73;10.53;;;17.70;1.00;;;;;;5074146;28;20550;-68
2022/04/14 09:51:36;;;;;;;25.10;14.70;;;17.70;1.00;;;;;;5076797;28;20432;-67
2022/04/14 09:54:19;;;;;;;13.07;9.90;;;18.00;1.00;;;;;;5076918;28;20773;-70
2022/04/14 09:56:53;;;;;;;17.20;10.50;;;17.80;99.90;;;;;;5076627;28;20984;-68
2022/04/14 09:59:20;;;;;;;15.90;8.60;;;18.00;99.90;;;;;;5076395;28;20961;-69
2022/04/14 10:01:47;;;;;;;15.30;10.33;;;18.50;99.90;;;;;;5076845;28;20499;-69
2022/04/14 10:04:28;;;;;;;15.43;10.73;;;18.60;99.90;;;;;;5076615;28;20404;-69
2022/04/14 10:07:14;;;;;;;14.43;10.80;;;18.50;99.90;;;;;;5076640;28;20389;-68
2022/04/14 10:09:41;;;;;;;14.97;9.60;;;18.60;99.90;;;;;;5075857;28;20452;-69
2022/04/14 10:12:30;;;;;;;18.83;11.13;;;18.30;99.90;;;;;;5076481;28;20408;-69
2022/04/14 10:14:56;;;;;;;15.70;10.83;;;18.20;99.90;;;;;;5065835;28;20547;-68
2022/04/14 10:17:26;;;;;;;13.10;9.27;;;18.10;99.90;;;;;;5076328;28;20952;-65
2022/04/14 10:19:52;;;;;;;16.07;9.93;;;17.80;99.90;;;;;;5075721;28;20167;-69
2022/04/14 10:22:19;;;;;;;12.63;10.10;;;17.40;99.90;;;;;;5076275;28;20781;-70
2022/04/14 10:24:48;;;;;;;13.40;9.30;;;17.30;99.90;;;;;;5076354;28;20901;-69
2022/04/14 10:27:15;;;;;;;13.23;8.87;;;17.10;99.90;;;;;;5076073;28;20924;-69
2022/04/14 10:29:44;;;;;;;10.63;7.83;;;17.30;99.90;;;;;;5075473;28;20408;-65
2022/04/14 10:32:11;;;;;;;13.77;10.13;;;17.40;99.90;;;;;;5058065;28;20792;-69
2022/04/14 10:34:38;;;;;;;12.77;9.47;;;17.40;99.90;;;;;;5075987;28;20411;-65
2022/04/14 10:37:07;;;;;;;13.37;9.37;;;17.40;99.90;;;;;;5075943;28;20401;-70
2022/04/14 10:39:39;;;;;;;8.40;7.40;;;17.70;99.90;;;;;;5075278;28;20412;-70
2022/04/14 10:42:07;;;;;;;11.77;7.70;;;17.30;99.90;;;;;;5075867;28;20994;-64
2022/04/14 10:44:47;;;;;;;8.73;7.83;;;17.20;99.90;;;;;;5076033;28;20409;-65
2022/04/14 10:47:54;;;;;;;10.47;7.90;;;18.00;99.90;;;;;;5075731;28;20389;-70
2022/04/14 10:50:25;;;;;;;10.80;8.30;;;18.40;99.90;;;;;;5075033;28;20397;-69
2022/04/14 10:53:12;;;;;;;15.10;8.10;;;19.00;99.90;;;;;;5075618;28;20429;-64
2022/04/14 10:55:45;;;;;;;9.93;8.17;;;19.50;99.90;;;;;;5075593;28;20454;-69
2022/04/14 10:58:26;;;;;;;9.10;8.20;;;18.90;99.90;;;;;;5075720;28;20430;-69
2022/04/14 11:00:54;;;;;;;9.93;6.97;;;18.00;99.90;;;;;;5074130;28;20488;-64
2022/04/14 11:03:19;;;;;;;13.27;7.47;;;17.70;99.90;;;;;;5057577;28;20466;-65
2022/04/14 11:05:50;;;;;;;10.77;9.07;;;17.50;99.90;;;;;;5075617;28;20962;-68
2022/04/14 11:08:26;;;;;;;11.20;7.80;;;17.00;99.90;;;;;;5075623;28;20253;-69
2022/04/14 11:11:12;;;;;;;12.37;7.00;;;17.10;99.90;;;;;;5074927;28;20447;-64
2022/04/14 11:13:53;;;;;;;11.53;7.83;;;16.90;99.90;;;;;;5075422;28;20404;-69
2022/04/14 11:16:44;;;;;;;12.20;9.00;;;16.70;99.90;;;;;;5075498;28;21014;-69
2022/04/14 11:19:19;;;;;;;9.50;8.50;;;17.00;99.90;;;;;;5074695;28;20404;-70
2022/04/14 11:22:01;;;;;;;10.00;7.73;;;17.30;99.90;;;;;;5075130;28;20507;-69
2022/04/14 11:24:35;;;;;;;9.10;7.47;;;17.70;99.90;;;;;;5075206;28;20475;-64
2022/04/14 11:27:26;;;;;;;11.80;8.90;;;17.40;99.90;;;;;;5075060;28;20752;-69
2022/04/14 11:30:01;;;;;;;11.43;8.27;;;17.00;99.90;;;;;;5074330;28;20424;-69
2022/04/14 11:32:41;;;;;;;9.00;7.00;;;17.40;99.90;;;;;;5074975;28;20471;-64
2022/04/14 11:35:18;;;;;;;11.93;7.50;;;17.40;99.90;;;;;;5074775;28;20479;-65
2022/04/14 11:37:49;;;;;;;11.50;7.10;;;17.30;99.90;;;;;;5074694;28;20900;-70
2022/04/14 11:40:21;;;;;;;10.57;8.30;;;17.60;99.90;;;;;;5074216;28;20403;-69
2022/04/14 11:42:52;;;;;;;8.30;6.80;;;18.90;99.90;;;;;;5056714;28;20848;-64
2022/04/14 11:45:26;;;;;;;8.57;6.10;;;19.10;99.90;;;;;;5074639;28;20466;-65
2022/04/14 11:47:55;;;;;;;6.20;4.93;;;19.40;99.90;;;;;;5074606;28;20411;-70
2022/04/14 11:50:24;;;;;;;6.83;5.17;;;19.20;99.90;;;;;;5073983;28;20913;-71
2022/04/14 11:53:02;;;;;;;5.17;4.50;;;18.30;99.90;;;;;;5074426;28;20416;-67
2022/04/14 11:55:39;;;;;;;8.57;5.50;;;17.50;99.90;;;;;;5074404;28;20452;-67
2022/04/14 11:58:09;;;;;;;15.00;6.60;;;17.20;99.90;;;;;;5074382;28;20455;-67
2022/04/14 12:00:46;;;;;;;9.93;7.00;;;17.30;99.90;;;;;;5073584;28;20404;-67
2022/04/14 12:03:13;;;;;;;6.03;5.30;;;18.00;99.90;;;;;;5074373;28;20416;-71
2022/04/14 12:05:40;;;;;;;8.90;5.47;;;17.80;99.90;;;;;;5074191;28;20483;-73
2022/04/14 12:08:10;;;;;;;6.70;5.20;;;17.30;99.90;;;;;;5074313;28;20491;-71
2022/04/14 12:10:36;;;;;;;6.47;5.87;;;17.00;99.90;;;;;;5073467;28;20925;-72
2022/04/14 12:13:19;;;;;;;;;;;;;;;;;;;;;
2022/04/14 12:16:03;;;;;;;8.60;6.60;;;16.40;99.90;;;;;;5074108;28;20474;-68
2022/04/14 12:18:29;;;;;;;13.17;8.27;;;16.30;99.90;;;;;;5073548;28;20406;-71
2022/04/14 12:20:59;;;;;;;10.07;8.07;;;16.10;99.90;;;;;;5074032;28;20440;-71
2022/04/14 12:23:25;;;;;;;9.80;7.47;;;16.30;99.90;;;;;;5056109;28;20440;-67
2022/04/14 12:25:54;;;;;;;14.70;7.90;;;16.70;99.90;;;;;;5074009;28;20424;-68
2022/04/14 12:28:20;;;;;;;11.73;7.50;;;16.80;99.90;;;;;;5073871;28;20162;-67
2022/04/14 12:30:46;;;;;;;11.97;8.53;;;17.30;99.90;;;;;;5073390;28;20409;-71
2022/04/14 12:33:11;;;;;;;8.63;7.37;;;17.30;99.90;;;;;;5056089;28;20432;-67
2022/04/14 12:35:40;;;;;;;12.97;8.13;;;17.20;99.90;;;;;;5073770;28;20198;-71
2022/04/14 12:38:25;;;;;;;9.30;7.47;;;17.10;99.90;;;;;;5073661;28;20166;-68
2022/04/14 12:41:01;;;;;;;10.43;6.70;;;17.70;99.90;;;;;;5073136;28;20929;-71